CL5 - MD à Guines Forêt de Guines (62) - D

Date : 14/04/2013
Distance : 3,000 km

Place Nom Licence Catégorie Club Temps min/km CN à J-60 Points Différence Nouveau CN
1 MINET Constance 23608 D16 6208NO 0:36:26 12'08 2501 3339 +838 3065
2 VANOVERBERGHE Mathilde 22238 D16 6203NO 0:37:50 12'36 2298 3215 +917 2480
3 ASTOLFI Judith 21418 D40 5909NO 0:42:36 14'12 3574 2856 -718 3483
4 DEPREZ Alix 25462 D16 5906NO 0:42:57 14'19 2636 2832 +196 2858
5 CLAIRET Richard 16397 H40 6205NO 0:43:33 14'31 4848 2793 -2055 5173
6 DULARY Louise 27712 D14 6203NO 0:47:07 15'42 2582 2170
7 PRUVOST Virginie 25881 D40 6208NO 0:47:47 15'55 2458 2546 +88 2689
8 CHAPUS Maryline 23769 D40 6205NO 0:48:34 16'11 0 2505 0
9 GRESSIER Léa 24242 D14 6208NO 0:49:02 16'20 2362 2481 +119 2435
10 TORZ-DRUON Magali 10081 D60 5906NO 0:54:38 18'12 2480 2227 -253 2472
11 POULAIN Odile 1948 D50 5909NO 0:54:49 18'16 2901 2219 -682 2685
12 BOUCHEZ Marie-Pascale 24241 D45 6208NO 0:54:57 18'19 2650 2214 -436 2650
13 JUDAS Sylvaine 13635 D55 6208NO 0:56:52 18'57 1860 2139 +279 2071
14 DEPERSIN Isabelle 17899 D40 5907NO 0:57:53 19'17 2102 2018
15 BELLENGIER Sabine 25381 D40 6208NO 0:59:12 19'44 2416 2055 -361 2416
16 BAUD Sandrine 27612 D35 6203NO 1:04:10 21'23 0 1896 1467
17 RIMETZ Marcelline 22235 D60 6208NO 1:09:32 23'10 1937 1749 -188 2134
18 EJSMONT Martine 14164 D65 6203NO 1:10:21 23'27 0 1729 1617
19 LUDEWIG-JAMES Carol 15894 D70 5907NO 1:24:19 28'06 1949 1443 -506 2000
20 JANQUIN Sylvie 27605 D35 6203NO 1:28:44 29'34 0 1371 1192
21 THERY Sophie 27606 D35 6203NO 1:32:43 30'54 1312 0
VANOVERBERGHE Nathalie 22237 D45 6203NO pm None 3043 0 2969
GOZE Anne 22931 D55 5907NO pm None 1495 0 1495
FOURMESTRAUX Honorine 27294 D14 5909NO pm None 0 0 0
FOURMESTRAUX Frédérique 27036 D45 5909NO pm None 0 0 0